Time;durP1;ratioP1;P1;durP2;ratioP2;P2;SDS_P1;SDS_P2;PMS_P1;PMS_P2;Temp;Humidity;BMP_temperature;BMP_pressure;BME280_temperature;BME280_humidity;BME280_pressure;Samples;Min_cycle;Max_cycle;Signal;HPM_P1;HPM_P2
2021/12/10 00:04:58;;;;;;;6.90;5.00;;;5.70;46.50;;;;;;10382443;28;20244;-75
2021/12/10 00:10:08;;;;;;;5.00;4.50;;;5.70;46.50;;;;;;10380279;28;20241;-75
2021/12/10 00:15:11;;;;;;;5.93;4.83;;;5.70;47.20;;;;;;10380764;28;20455;-75
2021/12/10 00:20:15;;;;;;;6.07;4.53;;;5.60;46.40;;;;;;10376489;28;20242;-75
2021/12/10 00:25:24;;;;;;;5.30;4.80;;;5.70;46.50;;;;;;10385497;28;20882;-73
2021/12/10 00:30:32;;;;;;;6.77;5.20;;;5.70;46.40;;;;;;10384889;28;21567;-74
2021/12/10 00:35:36;;;;;;;7.03;5.13;;;5.70;46.40;;;;;;10379984;28;20240;-73
2021/12/10 00:40:41;;;;;;;6.63;4.80;;;5.70;46.40;;;;;;10377394;28;20225;-73
2021/12/10 00:45:45;;;;;;;5.80;5.17;;;5.70;46.40;;;;;;10379123;28;20340;-73
2021/12/10 00:50:51;;;;;;;6.73;4.70;;;5.70;46.40;;;;;;10378267;28;20246;-73
2021/12/10 00:55:56;;;;;;;8.10;5.40;;;5.70;46.30;;;;;;10385785;28;20229;-73
2021/12/10 01:01:04;;;;;;;5.33;4.73;;;5.70;46.20;;;;;;10386257;28;20233;-72
2021/12/10 01:06:09;;;;;;;7.43;5.40;;;5.70;46.10;;;;;;10387033;28;20365;-73
2021/12/10 01:11:21;;;;;;;5.67;5.07;;;5.80;46.10;;;;;;10381905;28;20749;-73
2021/12/10 01:27:26;;;;;;;5.43;4.93;;;5.90;46.00;;;;;;10342576;28;20227;-73
2021/12/10 01:32:33;;;;;;;5.10;4.60;;;5.90;45.80;;;;;;10386348;28;20234;-73
2021/12/10 01:37:36;;;;;;;5.93;5.27;;;5.90;45.70;;;;;;10390854;28;20249;-73
2021/12/10 01:42:45;;;;;;;5.77;5.27;;;5.90;45.60;;;;;;10383812;28;20240;-73
2021/12/10 01:47:55;;;;;;;5.57;5.07;;;5.90;45.40;;;;;;10387465;28;20267;-73
2021/12/10 01:53:00;;;;;;;5.73;5.13;;;5.90;45.40;;;;;;10387944;28;20633;-74
2021/12/10 01:58:13;;;;;;;5.90;5.40;;;5.90;45.80;;;;;;10384781;28;20234;-73
2021/12/10 02:03:17;;;;;;;6.70;5.70;;;5.90;45.90;;;;;;10385179;28;20232;-73
2021/12/10 02:08:20;;;;;;;5.53;4.97;;;5.90;45.70;;;;;;10381096;28;20233;-74
2021/12/10 02:13:25;;;;;;;5.57;5.07;;;5.90;45.50;;;;;;10384181;28;20236;-73
2021/12/10 02:18:28;;;;;;;5.80;5.17;;;6.00;45.50;;;;;;10383757;28;20236;-74
2021/12/10 02:23:36;;;;;;;6.93;5.33;;;6.00;45.60;;;;;;10383235;28;20227;-73
2021/12/10 02:28:42;;;;;;;5.90;5.23;;;6.00;45.50;;;;;;10389659;28;20601;-73
2021/12/10 02:33:45;;;;;;;5.73;5.20;;;6.00;45.40;;;;;;10393308;28;20248;-73
2021/12/10 02:38:52;;;;;;;4.97;4.23;;;6.10;45.30;;;;;;10386985;28;20240;-73
2021/12/10 02:43:55;;;;;;;5.50;4.90;;;6.10;45.30;;;;;;10388472;28;20225;-75
2021/12/10 02:48:58;;;;;;;4.93;4.50;;;6.00;45.10;;;;;;10390840;28;20232;-75
2021/12/10 02:54:05;;;;;;;6.80;4.50;;;6.00;45.10;;;;;;10390316;28;20227;-74
2021/12/10 02:59:08;;;;;;;5.03;4.00;;;6.00;45.00;;;;;;10397856;28;20261;-73
2021/12/10 03:04:12;;;;;;;4.43;4.03;;;5.90;45.00;;;;;;10394957;28;20238;-73
2021/12/10 03:09:18;;;;;;;4.40;4.00;;;5.90;45.30;;;;;;10392814;28;20241;-73
2021/12/10 03:14:24;;;;;;;4.90;4.50;;;5.90;45.40;;;;;;10391530;28;20234;-73
2021/12/10 03:19:27;;;;;;;5.53;4.80;;;5.90;45.40;;;;;;10390704;28;20237;-73
2021/12/10 03:24:33;;;;;;;5.70;4.90;;;6.00;45.40;;;;;;10390353;28;20230;-73
2021/12/10 03:29:38;;;;;;;5.13;3.90;;;6.00;45.30;;;;;;10393302;28;20276;-72
2021/12/10 03:34:41;;;;;;;5.13;4.63;;;6.00;45.20;;;;;;10398080;28;20234;-73
2021/12/10 03:39:48;;;;;;;4.67;4.23;;;6.00;45.30;;;;;;10392752;28;20238;-73
2021/12/10 03:44:51;;;;;;;4.50;3.80;;;6.00;45.20;;;;;;10387668;28;20241;-73
2021/12/10 03:49:54;;;;;;;3.97;3.67;;;6.00;45.20;;;;;;10388950;28;20253;-73
2021/12/10 03:55:01;;;;;;;4.13;3.70;;;6.00;45.20;;;;;;10391581;28;20261;-73
2021/12/10 04:00:04;;;;;;;5.70;4.77;;;6.00;45.10;;;;;;10389708;28;20226;-73
2021/12/10 04:05:08;;;;;;;4.53;4.13;;;6.00;45.00;;;;;;10392993;28;20601;-73
2021/12/10 04:10:15;;;;;;;4.57;3.97;;;6.00;44.90;;;;;;10391033;28;20234;-74
2021/12/10 04:15:22;;;;;;;5.47;4.17;;;6.00;44.80;;;;;;10394680;28;20228;-73
2021/12/10 04:20:28;;;;;;;5.10;4.57;;;6.00;44.60;;;;;;10391016;28;20229;-73
2021/12/10 04:25:33;;;;;;;6.00;4.00;;;5.90;44.30;;;;;;10393040;28;20237;-73
2021/12/10 04:30:40;;;;;;;6.83;3.77;;;5.90;44.50;;;;;;10386181;28;20228;-74
2021/12/10 04:35:44;;;;;;;3.60;3.30;;;5.80;44.50;;;;;;10388042;28;20257;-73
2021/12/10 04:40:50;;;;;;;4.27;3.83;;;5.80;44.50;;;;;;10392206;28;20612;-73
2021/12/10 04:45:55;;;;;;;3.30;3.00;;;5.80;44.30;;;;;;10388723;28;20671;-73
2021/12/10 04:51:00;;;;;;;4.20;3.37;;;5.70;44.20;;;;;;10382639;28;20233;-72
2021/12/10 04:56:05;;;;;;;5.00;3.53;;;5.70;44.10;;;;;;10386277;28;20230;-73
2021/12/10 05:01:08;;;;;;;4.00;3.60;;;5.60;44.20;;;;;;10388341;28;20230;-73
2021/12/10 05:06:12;;;;;;;3.97;3.60;;;5.60;44.10;;;;;;10394272;28;20762;-73
2021/12/10 05:11:17;;;;;;;4.47;4.03;;;5.60;44.20;;;;;;10394726;28;20229;-73
2021/12/10 05:16:25;;;;;;;4.40;4.00;;;5.50;43.80;;;;;;10390337;28;20229;-73
2021/12/10 05:21:30;;;;;;;5.70;4.33;;;5.50;43.90;;;;;;10387239;28;20221;-74
2021/12/10 05:26:38;;;;;;;3.53;3.27;;;5.50;43.80;;;;;;10390694;28;20237;-74
2021/12/10 05:31:44;;;;;;;5.47;4.30;;;5.40;43.70;;;;;;10394605;28;20240;-73
2021/12/10 05:36:49;;;;;;;4.30;3.90;;;5.40;43.80;;;;;;10389874;28;20238;-73
2021/12/10 05:41:55;;;;;;;4.20;3.57;;;5.40;43.70;;;;;;10392961;28;20229;-73
2021/12/10 05:46:59;;;;;;;4.27;3.90;;;5.30;43.30;;;;;;10389773;28;20234;-73
2021/12/10 05:52:04;;;;;;;5.10;4.07;;;5.20;43.20;;;;;;10389030;28;20280;-72
2021/12/10 05:57:10;;;;;;;4.73;3.90;;;5.10;43.30;;;;;;10388412;28;20593;-72
2021/12/10 06:02:13;;;;;;;6.70;4.03;;;5.10;43.20;;;;;;10383578;28;20236;-71
2021/12/10 06:07:17;;;;;;;6.00;4.60;;;5.00;43.80;;;;;;10382603;28;20328;-71
2021/12/10 06:12:21;;;;;;;7.30;4.60;;;4.90;43.20;;;;;;10387454;28;20234;-70
2021/12/10 06:17:32;;;;;;;6.00;5.27;;;4.90;43.00;;;;;;10385236;28;20321;-69
2021/12/10 06:22:35;;;;;;;6.80;6.20;;;4.80;42.80;;;;;;10383488;28;20235;-69
2021/12/10 06:27:44;;;;;;;7.73;7.07;;;4.70;42.80;;;;;;10382616;28;20630;-68
2021/12/10 06:32:50;;;;;;;6.57;5.97;;;4.60;43.00;;;;;;10387260;28;20244;-68
2021/12/10 06:37:53;;;;;;;6.07;5.57;;;4.60;43.10;;;;;;10382022;28;20757;-68
2021/12/10 06:43:02;;;;;;;6.50;5.90;;;4.50;42.90;;;;;;10381559;28;20230;-68
2021/12/10 06:48:09;;;;;;;5.93;5.33;;;4.50;42.60;;;;;;10382810;28;20243;-71
2021/12/10 06:53:12;;;;;;;5.70;4.70;;;4.40;42.50;;;;;;10382738;28;20227;-73
2021/12/10 06:58:18;;;;;;;5.43;4.60;;;4.40;42.80;;;;;;10385091;28;20724;-73
2021/12/10 07:03:24;;;;;;;4.47;3.47;;;4.30;42.80;;;;;;10386294;28;22071;-73
2021/12/10 07:08:30;;;;;;;4.60;3.77;;;4.20;43.00;;;;;;10384259;28;20662;-72
2021/12/10 07:13:36;;;;;;;4.87;4.13;;;4.20;43.20;;;;;;10391565;28;20226;-72
2021/12/10 07:18:40;;;;;;;6.43;5.70;;;4.30;44.20;;;;;;10392804;28;20249;-72
2021/12/10 07:23:45;;;;;;;7.97;5.53;;;4.10;43.40;;;;;;10393601;28;20316;-73
2021/12/10 07:28:49;;;;;;;5.43;4.60;;;4.10;43.40;;;;;;10390679;28;20238;-73
2021/12/10 07:33:53;;;;;;;5.30;4.80;;;4.20;43.50;;;;;;10394205;28;20734;-72
2021/12/10 07:38:57;;;;;;;6.00;5.10;;;4.20;43.60;;;;;;10387278;28;20914;-73
2021/12/10 07:44:01;;;;;;;7.93;5.43;;;4.20;43.70;;;;;;10392056;28;20229;-72
2021/12/10 07:49:06;;;;;;;11.37;9.83;;;4.30;43.90;;;;;;10387451;28;20233;-72
2021/12/10 07:54:10;;;;;;;8.40;6.60;;;4.30;43.90;;;;;;10390722;28;20229;-73
2021/12/10 07:59:14;;;;;;;6.73;6.03;;;4.40;43.70;;;;;;10395313;28;20245;-72
2021/12/10 08:04:17;;;;;;;5.97;4.53;;;4.50;43.80;;;;;;10395501;28;20228;-72
2021/12/10 08:09:21;;;;;;;6.00;4.70;;;4.50;44.00;;;;;;10391190;28;20233;-73
2021/12/10 08:14:25;;;;;;;4.90;4.10;;;4.70;44.10;;;;;;10392863;28;21017;-73
2021/12/10 08:19:29;;;;;;;4.47;3.90;;;4.70;43.90;;;;;;10393094;28;20242;-72
2021/12/10 08:24:32;;;;;;;4.50;3.70;;;4.70;43.90;;;;;;10392211;28;20225;-72
2021/12/10 08:29:36;;;;;;;3.90;3.60;;;4.80;43.90;;;;;;10388378;28;20233;-73
2021/12/10 08:34:41;;;;;;;4.23;3.83;;;4.90;43.70;;;;;;10390906;28;20240;-73
2021/12/10 08:39:45;;;;;;;4.53;4.10;;;4.90;43.80;;;;;;10385623;28;20261;-72
2021/12/10 08:44:50;;;;;;;4.17;3.73;;;5.00;43.80;;;;;;10388460;28;20233;-72
2021/12/10 08:49:54;;;;;;;4.90;4.23;;;5.00;43.60;;;;;;10388016;28;20234;-72
2021/12/10 08:54:57;;;;;;;3.93;3.53;;;5.10;43.90;;;;;;10383344;28;20248;-72
2021/12/10 09:00:01;;;;;;;4.00;3.23;;;5.10;44.00;;;;;;10387178;28;20242;-72
2021/12/10 09:05:12;;;;;;;3.27;2.97;;;5.20;43.60;;;;;;10391408;28;20309;-72
2021/12/10 09:10:20;;;;;;;3.27;2.50;;;5.30;43.30;;;;;;10391946;28;20233;-73
2021/12/10 09:15:26;;;;;;;2.33;2.13;;;5.30;43.00;;;;;;10383038;28;20229;-73
2021/12/10 09:20:35;;;;;;;3.53;2.40;;;5.30;43.00;;;;;;10388395;28;20241;-73
2021/12/10 09:25:41;;;;;;;2.50;2.30;;;5.30;43.50;;;;;;10375773;28;20230;-73
2021/12/10 09:30:49;;;;;;;3.50;2.27;;;5.40;43.30;;;;;;10378220;28;20237;-73
2021/12/10 09:35:53;;;;;;;3.20;2.40;;;5.50;43.10;;;;;;10376613;28;20264;-73
2021/12/10 09:41:02;;;;;;;6.57;2.53;;;5.50;44.70;;;;;;10382771;28;20240;-73
2021/12/10 09:46:10;;;;;;;2.50;2.30;;;5.60;45.80;;;;;;10391017;28;20236;-74
2021/12/10 09:51:16;;;;;;;2.57;2.30;;;5.90;46.50;;;;;;10380863;28;20858;-74
2021/12/10 09:56:20;;;;;;;3.57;2.60;;;6.20;45.10;;;;;;10385192;28;20747;-74
2021/12/10 10:01:29;;;;;;;2.60;2.40;;;6.40;44.10;;;;;;10388268;28;20237;-75
2021/12/10 10:06:40;;;;;;;2.90;2.70;;;6.50;43.30;;;;;;10395860;28;20234;-75
2021/12/10 10:11:45;;;;;;;3.00;2.43;;;6.60;42.70;;;;;;10393701;28;20968;-75
2021/12/10 10:16:50;;;;;;;2.67;2.43;;;6.60;43.00;;;;;;10396125;28;20233;-76
2021/12/10 10:21:57;;;;;;;2.70;2.50;;;6.60;42.10;;;;;;10397252;28;20225;-75
2021/12/10 10:27:05;;;;;;;2.83;2.63;;;6.60;42.00;;;;;;10394909;28;20233;-76
2021/12/10 10:32:13;;;;;;;3.33;2.43;;;6.50;41.70;;;;;;10393668;28;20222;-75
2021/12/10 10:37:18;;;;;;;2.80;2.50;;;6.30;41.40;;;;;;10390335;28;20261;-75
2021/12/10 10:42:25;;;;;;;3.27;2.10;;;6.20;41.80;;;;;;10388879;28;20240;-76
2021/12/10 10:47:32;;;;;;;2.83;2.37;;;6.10;41.70;;;;;;10393055;28;20260;-76
2021/12/10 10:52:38;;;;;;;2.23;2.03;;;6.00;42.10;;;;;;10399722;28;20237;-76
2021/12/10 10:57:50;;;;;;;2.40;2.20;;;6.00;42.20;;;;;;10394417;28;20237;-76
2021/12/10 11:02:58;;;;;;;2.00;1.80;;;6.00;41.40;;;;;;10400157;28;20226;-76
2021/12/10 11:08:06;;;;;;;2.83;1.90;;;6.00;42.50;;;;;;10405036;28;20233;-75
2021/12/10 11:13:17;;;;;;;1.87;1.77;;;6.00;42.10;;;;;;10400106;28;20240;-76
2021/12/10 11:18:27;;;;;;;3.23;2.60;;;6.00;41.70;;;;;;10410842;28;20229;-76
2021/12/10 11:23:33;;;;;;;2.67;2.00;;;6.00;42.00;;;;;;10406563;28;20221;-76
2021/12/10 11:28:39;;;;;;;2.47;1.90;;;6.10;42.70;;;;;;10409746;28;20222;-76
2021/12/10 11:33:48;;;;;;;2.63;2.17;;;6.10;42.30;;;;;;10394775;28;20678;-76
2021/12/10 11:38:56;;;;;;;2.90;2.20;;;6.20;42.00;;;;;;10399977;28;20340;-75
2021/12/10 11:49:25;;;;;;;4.13;2.27;;;6.30;42.30;;;;;;10397094;28;20230;-75
2021/12/10 11:54:36;;;;;;;2.67;2.20;;;6.50;41.80;;;;;;10386938;28;20252;-74
2021/12/10 11:59:42;;;;;;;2.30;1.90;;;6.50;41.40;;;;;;10433844;23;20366;-76
2021/12/10 12:04:49;;;;;;;2.97;2.13;;;6.50;41.40;;;;;;10433708;28;20256;-76
2021/12/10 12:09:55;;;;;;;2.37;2.10;;;6.40;41.00;;;;;;10435452;28;20315;-76
2021/12/10 12:15:11;;;;;;;2.23;1.43;;;6.30;41.30;;;;;;10434024;28;20241;-76
2021/12/10 12:20:41;;;;;;;3.63;2.00;;;6.30;40.40;;;;;;10429408;28;20224;-76
2021/12/10 12:25:46;;;;;;;3.10;1.83;;;6.20;40.10;;;;;;10409392;28;20237;-77
2021/12/10 12:31:06;;;;;;;3.33;1.80;;;6.10;41.50;;;;;;10432733;28;20229;-78
2021/12/10 12:36:21;;;;;;;4.53;1.83;;;6.00;41.20;;;;;;10431667;28;20278;-77
2021/12/10 12:41:29;;;;;;;3.20;1.90;;;6.00;41.50;;;;;;10420254;28;20229;-77
2021/12/10 12:46:33;;;;;;;2.67;1.67;;;6.00;41.30;;;;;;10428416;28;20294;-79
2021/12/10 12:51:37;;;;;;;2.27;1.60;;;6.00;41.80;;;;;;10433462;28;20317;-78
2021/12/10 12:56:41;;;;;;;2.40;2.20;;;6.10;41.60;;;;;;10430348;28;20462;-81
2021/12/10 13:02:07;;;;;;;2.97;1.80;;;6.10;42.00;;;;;;10437933;28;20221;-83
2021/12/10 13:07:16;;;;;;;2.30;2.10;;;6.10;41.60;;;;;;10433529;28;20221;-81
2021/12/10 13:12:33;;;;;;;3.43;1.90;;;6.20;41.30;;;;;;10433373;28;20656;-78
2021/12/10 13:17:41;;;;;;;2.80;1.80;;;6.10;41.30;;;;;;10423498;28;20234;-83
2021/12/10 13:22:53;;;;;;;3.37;1.90;;;6.20;41.60;;;;;;10424194;28;20255;-78
2021/12/10 13:27:59;;;;;;;1.87;1.77;;;6.20;41.50;;;;;;10426941;28;20225;-78
2021/12/10 13:33:03;;;;;;;6.33;2.57;;;6.20;41.80;;;;;;10415640;28;20815;-77
2021/12/10 13:38:08;;;;;;;2.93;2.00;;;6.30;41.80;;;;;;10420077;28;20241;-77
2021/12/10 13:43:14;;;;;;;2.00;1.80;;;6.30;41.60;;;;;;10416398;28;20230;-80
2021/12/10 13:48:17;;;;;;;2.27;2.10;;;6.30;41.30;;;;;;10420172;28;20286;-81
2021/12/10 13:53:24;;;;;;;3.10;2.60;;;6.30;41.60;;;;;;10428711;28;20249;-78
2021/12/10 13:58:33;;;;;;;2.17;2.03;;;6.30;41.30;;;;;;10434357;28;20241;-81
2021/12/10 14:03:57;;;;;;;5.07;3.40;;;6.20;41.40;;;;;;10435884;28;20233;-80
2021/12/10 14:09:24;;;;;;;3.87;3.20;;;6.20;41.10;;;;;;10428426;28;20259;-83
2021/12/10 14:14:34;;;;;;;3.53;3.23;;;6.30;41.10;;;;;;10434133;28;20236;-83
2021/12/10 14:19:42;;;;;;;4.53;3.30;;;6.30;41.50;;;;;;10445690;28;20331;-80
2021/12/10 14:25:16;;;;;;;4.33;3.70;;;6.30;41.30;;;;;;10432375;28;20320;-80
2021/12/10 14:30:43;;;;;;;4.10;3.70;;;6.20;40.90;;;;;;10434966;28;20225;-79
2021/12/10 14:35:54;;;;;;;4.43;4.03;;;6.30;42.00;;;;;;10435127;28;20239;-81
2021/12/10 14:41:05;;;;;;;8.70;7.93;;;6.30;41.80;;;;;;10437024;28;20229;-80
2021/12/10 14:46:32;;;;;;;3.67;3.27;;;6.30;41.30;;;;;;10435042;28;20311;-79
2021/12/10 14:52:12;;;;;;;3.80;3.50;;;6.30;41.10;;;;;;10431736;28;20239;-81
2021/12/10 14:57:52;;;;;;;3.47;3.10;;;6.20;40.90;;;;;;10429488;28;20284;-82
2021/12/10 15:03:18;;;;;;;2.97;2.57;;;6.10;41.00;;;;;;10437937;28;20234;-80
2021/12/10 15:08:47;;;;;;;3.57;3.13;;;6.00;41.60;;;;;;10429822;28;20240;-81
2021/12/10 15:14:16;;;;;;;4.20;3.80;;;6.00;42.50;;;;;;10412698;28;20221;-81
2021/12/10 15:19:31;;;;;;;3.87;3.47;;;6.00;42.30;;;;;;10436630;28;20252;-80
2021/12/10 15:24:39;;;;;;;16.40;13.00;;;6.10;41.80;;;;;;10439123;28;20256;-80
2021/12/10 15:29:49;;;;;;;9.07;7.30;;;6.20;41.90;;;;;;10430467;28;20233;-80
2021/12/10 15:34:57;;;;;;;20.87;18.83;;;6.10;41.60;;;;;;10438653;28;20320;-81
2021/12/10 15:40:08;;;;;;;34.13;26.60;;;6.10;41.90;;;;;;10449013;28;20840;-80
2021/12/10 15:45:16;;;;;;;19.00;15.87;;;6.10;41.80;;;;;;10444884;28;20312;-81
2021/12/10 15:50:23;;;;;;;9.67;8.73;;;6.10;41.80;;;;;;10446587;28;20244;-80
2021/12/10 15:55:28;;;;;;;7.13;6.30;;;6.10;42.00;;;;;;10447635;28;20309;-84
2021/12/10 16:00:34;;;;;;;8.00;7.20;;;6.10;41.80;;;;;;10433430;28;20602;-83
2021/12/10 16:06:00;;;;;;;7.03;5.53;;;6.10;41.90;;;;;;10420032;28;20241;-83
2021/12/10 16:11:06;;;;;;;6.40;4.93;;;6.10;42.00;;;;;;10426421;28;20229;-83
2021/12/10 16:16:19;;;;;;;4.97;4.57;;;6.10;42.00;;;;;;10440399;28;20237;-81
2021/12/10 16:21:40;;;;;;;5.13;4.03;;;6.10;41.70;;;;;;10440279;28;20300;-85
2021/12/10 16:26:47;;;;;;;4.60;3.90;;;6.00;41.60;;;;;;10437693;28;20236;-84
2021/12/10 16:31:56;;;;;;;7.30;5.07;;;6.00;41.80;;;;;;10440865;28;20236;-82
2021/12/10 16:37:18;;;;;;;6.93;5.13;;;5.90;42.20;;;;;;10449344;28;20259;-81
2021/12/10 16:42:22;;;;;;;9.33;7.00;;;5.90;42.20;;;;;;10443433;28;20241;-84
2021/12/10 16:47:29;;;;;;;5.60;5.10;;;6.10;42.30;;;;;;10430909;28;20225;-84
2021/12/10 16:52:35;;;;;;;5.60;4.93;;;6.00;42.00;;;;;;10440074;28;20244;-81
2021/12/10 16:57:42;;;;;;;9.37;8.57;;;6.00;42.20;;;;;;10430271;28;20677;-81
2021/12/10 17:02:49;;;;;;;6.47;5.67;;;5.80;42.30;;;;;;10429848;28;20264;-82
2021/12/10 17:07:55;;;;;;;5.60;5.07;;;5.60;42.60;;;;;;10437226;28;20243;-81
2021/12/10 17:13:05;;;;;;;6.23;5.63;;;5.60;42.90;;;;;;10434767;28;20261;-83
2021/12/10 17:18:13;;;;;;;7.97;6.63;;;5.50;43.10;;;;;;10434763;28;20248;-82
2021/12/10 17:23:20;;;;;;;14.53;13.10;;;5.50;43.20;;;;;;10428728;28;20240;-82
2021/12/10 17:28:28;;;;;;;16.53;14.77;;;5.40;43.10;;;;;;10434619;28;20241;-82
2021/12/10 17:33:45;;;;;;;42.13;27.23;;;5.40;43.20;;;;;;10430567;28;20256;-82
2021/12/10 17:38:51;;;;;;;17.77;15.70;;;5.40;43.30;;;;;;10435328;28;20242;-82
2021/12/10 17:43:57;;;;;;;11.70;10.50;;;5.40;43.20;;;;;;10438849;28;20300;-82
2021/12/10 17:49:07;;;;;;;10.67;9.27;;;5.40;43.30;;;;;;10435938;28;20225;-83
2021/12/10 17:54:14;;;;;;;14.73;13.47;;;5.30;43.50;;;;;;10434659;28;20252;-83
2021/12/10 17:59:20;;;;;;;11.50;10.47;;;5.30;43.50;;;;;;10437648;28;20300;-83
2021/12/10 18:04:27;;;;;;;10.07;9.10;;;5.30;43.80;;;;;;10447506;28;20316;-82
2021/12/10 18:09:37;;;;;;;8.47;7.63;;;5.30;43.90;;;;;;10439555;28;20235;-83
2021/12/10 18:14:43;;;;;;;6.90;6.30;;;5.30;44.00;;;;;;10429979;28;20281;-77
2021/12/10 18:19:54;;;;;;;8.47;7.77;;;5.40;43.90;;;;;;10428498;28;20250;-78
2021/12/10 18:25:00;;;;;;;6.73;6.13;;;5.30;43.90;;;;;;10424456;28;20803;-78
2021/12/10 18:30:05;;;;;;;7.63;6.73;;;5.30;43.90;;;;;;10429858;28;20216;-78
2021/12/10 18:35:13;;;;;;;9.03;8.13;;;5.40;44.00;;;;;;10429047;28;20598;-78
2021/12/10 18:40:20;;;;;;;14.40;12.93;;;5.40;44.90;;;;;;10433532;28;20952;-78
2021/12/10 18:45:26;;;;;;;70.77;54.10;;;5.40;44.00;;;;;;10430360;28;20239;-79
2021/12/10 18:50:35;;;;;;;49.40;41.03;;;5.40;44.00;;;;;;10448482;28;20228;-78
2021/12/10 18:55:42;;;;;;;25.40;22.70;;;5.40;44.10;;;;;;10444904;28;20244;-77
2021/12/10 19:00:50;;;;;;;21.97;16.87;;;5.40;44.10;;;;;;10447186;28;20726;-79
2021/12/10 19:06:00;;;;;;;24.13;17.47;;;5.40;44.20;;;;;;10436812;28;20260;-78
2021/12/10 19:11:07;;;;;;;25.03;16.93;;;5.30;44.30;;;;;;10454256;28;20889;-78
2021/12/10 19:16:14;;;;;;;21.43;15.80;;;5.30;44.30;;;;;;10437937;28;20239;-77
2021/12/10 19:21:22;;;;;;;17.23;13.47;;;5.30;44.40;;;;;;10440233;28;20230;-78
2021/12/10 19:26:28;;;;;;;13.93;12.27;;;5.30;44.50;;;;;;10432471;28;20239;-77
2021/12/10 19:31:37;;;;;;;13.13;11.73;;;5.30;45.20;;;;;;10431942;28;20239;-80
2021/12/10 19:36:46;;;;;;;11.03;9.93;;;5.30;44.70;;;;;;10436654;28;20602;-78
2021/12/10 19:41:57;;;;;;;11.57;10.53;;;5.30;44.80;;;;;;10436881;28;20237;-78
2021/12/10 19:47:05;;;;;;;11.07;10.07;;;5.30;44.90;;;;;;10440438;28;20244;-79
2021/12/10 19:52:13;;;;;;;11.60;10.53;;;5.30;44.70;;;;;;10439561;28;20236;-79
2021/12/10 19:57:22;;;;;;;10.63;9.73;;;5.30;44.80;;;;;;10430717;28;20232;-77
2021/12/10 20:02:33;;;;;;;11.77;10.57;;;5.30;45.00;;;;;;10432129;28;20229;-77
2021/12/10 20:07:45;;;;;;;11.33;10.33;;;5.30;45.00;;;;;;10436620;28;20271;-77
2021/12/10 20:12:51;;;;;;;11.00;10.00;;;5.30;45.10;;;;;;10428252;28;20232;-78
2021/12/10 20:17:58;;;;;;;12.00;10.80;;;5.30;45.20;;;;;;10434516;28;20290;-78
2021/12/10 20:23:10;;;;;;;13.40;12.07;;;5.30;45.20;;;;;;10429922;28;20335;-77
2021/12/10 20:28:17;;;;;;;12.23;10.87;;;5.20;45.50;;;;;;10435535;28;20221;-77
2021/12/10 20:33:24;;;;;;;11.73;10.63;;;5.20;45.40;;;;;;10428506;28;20229;-77
2021/12/10 20:38:35;;;;;;;11.60;10.53;;;5.20;45.50;;;;;;10431589;28;20233;-77
2021/12/10 20:43:43;;;;;;;10.57;9.67;;;5.30;45.80;;;;;;10419586;28;20229;-77
2021/12/10 20:48:50;;;;;;;9.97;9.17;;;5.30;45.50;;;;;;10436331;28;20228;-78
2021/12/10 20:54:02;;;;;;;9.43;8.63;;;5.30;45.40;;;;;;10429329;28;20245;-77
2021/12/10 20:59:09;;;;;;;8.30;7.57;;;5.30;45.70;;;;;;10426016;28;20232;-77
2021/12/10 21:04:17;;;;;;;7.53;6.87;;;5.40;45.60;;;;;;10426451;28;20695;-78
2021/12/10 21:09:29;;;;;;;5.17;4.77;;;5.40;45.70;;;;;;10433430;28;20232;-77
2021/12/10 21:14:35;;;;;;;4.30;4.00;;;5.40;46.20;;;;;;10429919;28;20231;-77
2021/12/10 21:19:43;;;;;;;3.77;3.47;;;5.50;46.20;;;;;;10428569;28;20226;-77
2021/12/10 21:24:52;;;;;;;3.43;3.13;;;5.50;46.50;;;;;;10432198;28;20236;-79
2021/12/10 21:29:59;;;;;;;3.40;3.20;;;5.60;46.70;;;;;;10428968;28;20243;-79
2021/12/10 21:35:15;;;;;;;3.30;3.10;;;5.70;46.50;;;;;;10423327;23;20297;-73
2021/12/10 21:40:21;;;;;;;3.30;3.10;;;5.70;46.60;;;;;;10374200;28;20233;-72
2021/12/10 21:45:30;;;;;;;3.50;3.20;;;5.80;46.70;;;;;;10367929;28;20252;-72
2021/12/10 21:50:40;;;;;;;3.17;2.97;;;5.90;46.70;;;;;;10371489;28;20229;-72
2021/12/10 21:55:49;;;;;;;3.20;3.00;;;5.90;46.60;;;;;;10363819;28;20230;-72
2021/12/10 22:00:56;;;;;;;3.37;3.10;;;5.90;46.70;;;;;;10361964;28;20627;-74
2021/12/10 22:06:03;;;;;;;3.70;3.43;;;6.00;46.70;;;;;;10370434;28;20233;-73
2021/12/10 22:11:22;;;;;;;3.37;3.13;;;6.00;46.60;;;;;;10371830;28;20280;-73
2021/12/10 22:16:29;;;;;;;3.63;3.37;;;6.00;46.70;;;;;;10373154;28;20608;-72
2021/12/10 22:21:35;;;;;;;3.07;2.77;;;6.10;46.60;;;;;;10371051;28;20238;-73
2021/12/10 22:26:42;;;;;;;2.73;2.53;;;6.10;46.60;;;;;;10376388;28;20225;-73
2021/12/10 22:31:50;;;;;;;2.80;2.60;;;6.20;46.70;;;;;;10367659;28;20225;-71
2021/12/10 22:37:01;;;;;;;2.63;2.50;;;6.20;46.60;;;;;;10368453;28;20692;-75
2021/12/10 22:42:09;;;;;;;2.83;2.63;;;6.20;46.60;;;;;;10377851;28;20236;-72
2021/12/10 22:47:18;;;;;;;2.57;2.37;;;6.20;46.70;;;;;;10380765;28;20704;-72
2021/12/10 22:52:25;;;;;;;2.70;2.50;;;6.20;46.70;;;;;;10381809;28;20248;-72
2021/12/10 22:57:35;;;;;;;2.20;2.10;;;6.30;46.60;;;;;;10378823;28;20260;-72
2021/12/10 23:02:41;;;;;;;2.27;2.17;;;6.30;46.70;;;;;;10381074;28;20233;-72
2021/12/10 23:07:51;;;;;;;2.70;2.50;;;6.30;46.60;;;;;;10377782;28;20230;-72
2021/12/10 23:12:59;;;;;;;2.30;2.20;;;6.30;46.60;;;;;;10379826;28;20333;-72
2021/12/10 23:18:08;;;;;;;2.60;2.40;;;6.30;46.60;;;;;;10387209;28;20229;-73
2021/12/10 23:23:10;;;;;;;2.57;2.37;;;6.40;46.60;;;;;;10381049;28;20244;-73
2021/12/10 23:28:22;;;;;;;2.27;2.07;;;6.40;46.30;;;;;;10378484;28;20234;-73
2021/12/10 23:33:32;;;;;;;2.20;2.10;;;6.40;46.50;;;;;;10379981;28;20304;-73
2021/12/10 23:38:37;;;;;;;2.10;1.90;;;6.40;46.40;;;;;;10378198;28;20234;-73
2021/12/10 23:43:47;;;;;;;2.17;2.07;;;6.40;46.30;;;;;;10372935;28;20283;-72
2021/12/10 23:48:55;;;;;;;1.83;1.73;;;6.40;46.30;;;;;;10378985;28;20704;-72
2021/12/10 23:53:59;;;;;;;2.17;1.73;;;6.50;46.40;;;;;;10381009;28;20234;-73
2021/12/10 23:59:07;;;;;;;1.77;1.67;;;6.50;46.20;;;;;;10379238;28;20226;-73
